createdAt,value
2018-02-03T00:01:18.935Z,7.20
2018-02-03T00:03:54.507Z,5.80
2018-02-03T00:09:05.550Z,6.13
2018-02-03T00:11:36.509Z,5.40
2018-02-03T00:14:09.681Z,7.13
2018-02-03T00:16:43.067Z,7.07
2018-02-03T00:19:17.895Z,6.10
2018-02-03T00:21:51.495Z,7.60
2018-02-03T00:24:25.607Z,5.30
2018-02-03T00:26:58.278Z,6.43
2018-02-03T00:29:32.042Z,6.00
2018-02-03T00:32:05.083Z,6.25
2018-02-03T00:34:38.699Z,5.50
2018-02-03T00:37:14.817Z,5.93
2018-02-03T00:39:49.851Z,6.80
2018-02-03T00:42:24.170Z,6.03
2018-02-03T00:44:58.212Z,6.40
2018-02-03T00:52:49.437Z,7.03
2018-02-03T00:55:24.061Z,5.93
2018-02-03T00:58:04.469Z,6.73
2018-02-03T01:00:37.523Z,6.47
2018-02-03T01:03:11.480Z,7.00
2018-02-03T01:05:45.312Z,6.50
2018-02-03T01:10:54.137Z,7.20
2018-02-03T01:13:28.613Z,6.20
2018-02-03T01:16:01.705Z,6.82
2018-02-03T01:18:36.458Z,5.53
2018-02-03T01:21:09.689Z,7.00
2018-02-03T01:26:22.502Z,6.85
2018-02-03T01:28:55.447Z,6.20
2018-02-03T01:31:27.831Z,8.20
2018-02-03T01:34:03.531Z,6.93
2018-02-03T01:36:37.133Z,6.60
2018-02-03T01:39:10.636Z,5.87
2018-02-03T01:41:45.778Z,6.47
2018-02-03T01:46:58.167Z,7.00
2018-02-03T01:49:31.076Z,5.57
2018-02-03T01:54:42.347Z,8.10
2018-02-03T02:05:06.756Z,8.20
2018-02-03T02:07:38.855Z,7.33
2018-02-03T02:10:07.867Z,8.20
2018-02-03T02:12:36.916Z,7.10
2018-02-03T02:15:06.052Z,8.18
2018-02-03T02:17:35.122Z,6.70
2018-02-03T02:20:04.159Z,8.20
2018-02-03T02:22:33.529Z,8.30
2018-02-03T02:25:02.570Z,8.63
2018-02-03T02:27:31.588Z,6.73
2018-02-03T02:30:01.313Z,8.70
2018-02-03T02:32:32.597Z,8.75
2018-02-03T02:35:01.992Z,8.17
2018-02-03T02:37:31.084Z,8.95
2018-02-03T02:40:00.110Z,7.20
2018-02-03T02:42:29.152Z,8.60
2018-02-03T02:44:58.498Z,8.03
2018-02-03T02:47:28.042Z,8.88
2018-02-03T02:49:57.083Z,6.93
2018-02-03T02:52:27.128Z,8.60
2018-02-03T02:54:56.149Z,9.25
2018-02-03T02:57:25.185Z,8.10
2018-02-03T02:59:54.219Z,9.15
2018-02-03T03:02:23.274Z,9.40
2018-02-03T03:04:52.318Z,8.50
2018-02-03T03:07:21.348Z,8.85
2018-02-03T03:09:50.395Z,9.13
2018-02-03T03:12:19.460Z,9.23
2018-02-03T03:14:48.524Z,8.50
2018-02-03T03:17:17.573Z,8.90
2018-02-03T03:19:46.610Z,8.50
2018-02-03T03:22:15.654Z,9.80
2018-02-03T03:24:44.709Z,9.00
2018-02-03T03:27:13.749Z,10.20
2018-02-03T03:29:42.785Z,9.82
2018-02-03T03:32:11.825Z,8.23
2018-02-03T03:34:40.861Z,9.90
2018-02-03T03:37:09.910Z,9.07
2018-02-03T03:39:38.941Z,10.15
2018-02-03T03:42:07.980Z,8.50
2018-02-03T03:44:37.025Z,10.43
2018-02-03T03:47:06.059Z,10.00
2018-02-03T03:49:36.081Z,8.00
2018-02-03T03:52:05.085Z,9.90
2018-02-03T03:54:34.130Z,9.57
2018-02-03T03:57:03.174Z,10.55
2018-02-03T03:59:32.210Z,10.10
2018-02-03T04:02:01.280Z,7.93
2018-02-03T04:04:30.334Z,10.05
2018-02-03T04:06:59.385Z,10.80
2018-02-03T04:09:28.505Z,9.30
2018-02-03T04:11:58.032Z,10.40
2018-02-03T04:16:07.690Z,10.43
2018-02-03T04:18:37.943Z,9.30
2018-02-03T04:21:06.957Z,10.60
2018-02-03T04:23:35.993Z,8.63
2018-02-03T04:26:05.017Z,11.00
2018-02-03T04:28:34.062Z,10.98
2018-02-03T04:31:03.100Z,8.97
2018-02-03T04:33:32.147Z,10.82
2018-02-03T04:36:01.187Z,11.57
2018-02-03T04:38:30.249Z,8.90
2018-02-03T04:40:59.269Z,10.57
2018-02-03T04:43:28.321Z,10.80
2018-02-03T04:45:57.353Z,8.87
2018-02-03T04:48:26.397Z,10.40
2018-02-03T04:53:43.577Z,11.10
2018-02-03T04:58:47.832Z,10.93
2018-02-03T05:01:16.856Z,9.20
2018-02-03T05:03:46.663Z,10.63
2018-02-03T05:06:15.787Z,9.10
2018-02-03T05:08:44.825Z,10.88
2018-02-03T05:11:13.869Z,9.27
2018-02-03T05:13:42.905Z,10.80
2018-02-03T05:16:11.956Z,10.70
2018-02-03T05:18:40.994Z,9.13
2018-02-03T05:21:10.050Z,10.50
2018-02-03T05:23:39.075Z,10.85
2018-02-03T05:26:08.109Z,9.37
2018-02-03T05:28:37.163Z,10.32
2018-02-03T05:31:06.201Z,8.70
2018-02-03T05:33:35.234Z,10.65
2018-02-03T05:36:04.281Z,10.95
2018-02-03T05:38:33.321Z,7.97
2018-02-03T05:41:02.349Z,9.65
2018-02-03T05:43:32.150Z,8.40
2018-02-03T05:46:01.201Z,9.93
2018-02-03T05:48:30.233Z,7.83
2018-02-03T05:51:00.207Z,9.73
2018-02-03T05:56:06.254Z,9.90
2018-02-03T06:01:15.466Z,10.20
2018-02-03T06:03:46.482Z,8.90
2018-02-03T06:06:24.313Z,9.82
2018-02-03T06:08:54.314Z,9.00
2018-02-03T06:11:37.735Z,10.40
2018-02-03T06:14:06.789Z,8.50
2018-02-03T06:19:13.117Z,10.10
2018-02-03T06:21:45.919Z,8.67
2018-02-03T06:24:23.906Z,10.25
2018-02-03T06:26:52.957Z,8.43
2018-02-03T06:29:37.393Z,9.80
2018-02-03T06:32:06.434Z,10.10
2018-02-03T06:37:11.670Z,9.32
2018-02-03T06:39:40.757Z,9.27
2018-02-03T06:42:09.786Z,7.70
2018-02-03T06:44:38.822Z,9.57
2018-02-03T06:47:08.761Z,9.93
2018-02-03T06:49:37.809Z,7.70
2018-02-03T06:52:06.853Z,9.55
2018-02-03T06:54:35.921Z,9.80
2018-02-03T06:57:04.936Z,7.20
2018-02-03T06:59:33.973Z,9.45
2018-02-03T07:02:03.002Z,9.00
2018-02-03T07:04:32.087Z,9.57
2018-02-03T07:07:01.121Z,10.07
2018-02-03T07:09:30.166Z,9.45
2018-02-03T07:11:59.226Z,7.97
2018-02-03T07:14:28.342Z,9.70
2018-02-03T07:16:57.401Z,8.57
2018-02-03T07:19:26.441Z,10.00
2018-02-03T07:21:55.484Z,9.80
2018-02-03T07:24:24.534Z,8.40
2018-02-03T07:26:53.739Z,9.60
2018-02-03T07:29:22.821Z,9.63
2018-02-03T07:31:51.865Z,9.07
2018-02-03T07:34:21.852Z,9.90
2018-02-03T07:36:50.922Z,8.67
2018-02-03T07:39:21.077Z,10.07
2018-02-03T07:41:51.301Z,9.30
2018-02-03T07:44:20.337Z,10.00
2018-02-03T07:46:49.380Z,9.47
2018-02-03T07:49:18.433Z,11.20
2018-02-03T07:51:47.622Z,11.95
2018-02-03T07:54:16.770Z,10.13
2018-02-03T07:56:45.812Z,11.45
2018-02-03T07:59:21.532Z,11.07
2018-02-03T08:01:50.547Z,11.73
2018-02-03T08:04:19.628Z,10.80
2018-02-03T08:06:48.790Z,11.75
2018-02-03T08:09:17.829Z,11.47
2018-02-03T08:11:46.890Z,11.50
2018-02-03T08:14:15.927Z,12.40
2018-02-03T08:16:44.972Z,12.05
2018-02-03T08:19:14.018Z,10.73
2018-02-03T08:21:43.070Z,11.48
2018-02-03T08:24:12.122Z,12.30
2018-02-03T08:26:41.165Z,10.00
2018-02-03T08:29:10.210Z,11.43
2018-02-03T08:31:39.257Z,9.77
2018-02-03T08:34:08.301Z,11.82
2018-02-03T08:36:37.402Z,8.80
2018-02-03T08:39:06.416Z,11.07
2018-02-03T08:41:35.808Z,11.18
2018-02-03T08:44:04.859Z,9.03
2018-02-03T08:49:09.074Z,11.43
2018-02-03T08:51:38.109Z,11.00
2018-02-03T08:54:07.152Z,10.70
2018-02-03T08:56:36.194Z,10.88
2018-02-03T08:59:05.217Z,8.90
2018-02-03T09:01:34.258Z,10.40
2018-02-03T09:04:03.298Z,11.12
2018-02-03T09:06:32.338Z,8.87
2018-02-03T09:09:01.431Z,9.35
2018-02-03T09:11:30.433Z,8.77
2018-02-03T09:13:59.474Z,9.27
2018-02-03T09:16:28.504Z,7.77
2018-02-03T09:18:57.574Z,9.50
2018-02-03T09:21:26.630Z,8.97
2018-02-03T09:23:55.729Z,9.38
2018-02-03T09:26:24.761Z,10.23
2018-02-03T09:28:53.772Z,8.33
2018-02-03T09:31:22.841Z,8.75
2018-02-03T09:33:51.876Z,9.98
2018-02-03T09:36:20.921Z,7.93
2018-02-03T09:38:49.964Z,7.37
2018-02-03T09:41:18.993Z,9.32
2018-02-03T09:43:48.030Z,9.68
2018-02-03T09:46:17.107Z,7.80
2018-02-03T09:48:46.155Z,9.60
2018-02-03T09:51:15.204Z,7.30
2018-02-03T09:53:44.237Z,8.98
2018-02-03T09:56:13.281Z,8.00
2018-02-03T09:58:42.317Z,8.60
2018-02-03T10:01:11.365Z,8.20
2018-02-03T10:03:40.405Z,8.98
2018-02-03T10:06:14.977Z,7.80
2018-02-03T10:08:44.123Z,7.53
2018-02-03T10:11:13.126Z,8.27
2018-02-03T10:13:42.223Z,8.30
2018-02-03T10:16:11.225Z,7.10
2018-02-03T10:21:15.495Z,8.70
2018-02-03T10:23:44.658Z,7.70
2018-02-03T10:26:13.678Z,6.97
2018-02-03T10:28:42.754Z,8.70
2018-02-03T10:31:11.745Z,6.83
2018-02-03T10:33:42.650Z,6.67
2018-02-03T10:36:11.653Z,8.05
2018-02-03T10:38:40.678Z,7.03
2018-02-03T10:43:44.958Z,9.00
2018-02-03T10:46:13.984Z,8.70
2018-02-03T10:48:43.029Z,7.40
2018-02-03T10:51:12.058Z,8.95
2018-02-03T10:53:41.085Z,8.03
2018-02-03T10:56:10.125Z,8.30
2018-02-03T10:58:39.166Z,7.80
2018-02-03T11:01:10.032Z,9.70
2018-02-03T11:03:39.088Z,8.10
2018-02-03T11:08:43.530Z,10.45
2018-02-03T11:13:48.030Z,8.90
2018-02-03T11:16:17.214Z,8.63
2018-02-03T11:18:47.269Z,9.68
2018-02-03T11:21:16.449Z,7.30
2018-02-03T11:23:45.476Z,7.60
2018-02-03T11:26:14.519Z,9.57
2018-02-03T11:28:43.594Z,9.07
2018-02-03T11:31:12.640Z,7.00
2018-02-03T11:33:42.767Z,7.70
2018-02-03T11:36:11.816Z,10.50
2018-02-03T11:38:42.069Z,8.90
2018-02-03T11:41:11.101Z,8.80
2018-02-03T11:46:15.465Z,10.85
2018-02-03T11:48:44.506Z,9.23
2018-02-03T11:51:13.550Z,9.50
2018-02-03T11:53:44.152Z,9.50
2018-02-03T11:56:13.217Z,9.20
2018-02-03T11:58:42.950Z,10.38
2018-02-03T12:01:11.997Z,8.50
2018-02-03T12:03:41.862Z,9.75
2018-02-03T12:06:10.921Z,9.73
2018-02-03T12:08:41.136Z,8.10
2018-02-03T12:11:18.676Z,7.10
2018-02-03T12:13:47.706Z,7.60
2018-02-03T12:16:16.738Z,8.27
2018-02-03T12:18:45.785Z,7.30
2018-02-03T12:23:49.988Z,7.90
2018-02-03T12:26:19.013Z,8.00
2018-02-03T12:28:48.045Z,7.07
2018-02-03T12:31:17.076Z,7.20
2018-02-03T12:33:46.110Z,7.97
2018-02-03T12:36:15.223Z,8.20
2018-02-03T12:38:44.226Z,9.35
2018-02-03T12:41:13.260Z,7.63
2018-02-03T12:43:43.096Z,8.27
2018-02-03T12:48:47.333Z,6.95
2018-02-03T12:51:16.364Z,6.53
2018-02-03T12:53:51.004Z,5.47
2018-02-03T12:56:20.009Z,6.95
2018-02-03T12:58:49.037Z,5.90
2018-02-03T13:01:18.068Z,5.93
2018-02-03T13:03:48.076Z,6.83
2018-02-03T13:06:17.134Z,5.23
2018-02-03T13:08:46.160Z,5.83
2018-02-03T13:11:15.239Z,5.83
2018-02-03T13:13:44.264Z,6.77
2018-02-03T13:16:13.315Z,5.57
2018-02-03T13:18:43.289Z,6.47
2018-02-03T13:21:12.321Z,8.00
2018-02-03T13:23:42.081Z,7.10
2018-02-03T13:26:11.122Z,7.50
2018-02-03T13:28:41.927Z,7.13
2018-02-03T13:31:10.952Z,8.30
2018-02-03T13:33:41.083Z,8.07
2018-02-03T13:36:12.939Z,6.10
2018-02-03T13:38:42.049Z,5.27
2018-02-03T13:41:12.033Z,6.90
2018-02-03T13:43:41.069Z,7.50
2018-02-03T13:46:11.140Z,6.47
2018-02-03T13:48:44.159Z,7.30
2018-02-03T13:51:13.282Z,6.43
2018-02-03T13:53:42.321Z,7.55
2018-02-03T13:56:12.684Z,6.30
2018-02-03T13:58:41.716Z,6.67
2018-02-03T14:01:11.692Z,6.93
2018-02-03T14:03:40.716Z,7.80
2018-02-03T14:06:10.968Z,8.50
2018-02-03T14:08:40.011Z,6.20
2018-02-03T14:11:09.241Z,7.95
2018-02-03T14:13:38.247Z,7.13
2018-02-03T14:16:07.313Z,6.83
2018-02-03T14:18:37.792Z,6.63
2018-02-03T14:21:06.830Z,6.77
2018-02-03T14:23:35.861Z,6.00
2018-02-03T14:26:11.159Z,7.13
2018-02-03T14:28:40.210Z,7.17
2018-02-03T14:31:09.898Z,6.40
2018-02-03T14:33:38.960Z,8.10
2018-02-03T14:36:08.004Z,7.50
2018-02-03T14:38:37.086Z,7.30
2018-02-03T14:41:07.025Z,6.83
2018-02-03T14:43:36.087Z,7.33
2018-02-03T14:46:05.112Z,6.70
2018-02-03T14:48:34.192Z,7.00
2018-02-03T14:51:04.136Z,7.00
2018-02-03T14:53:40.743Z,6.33
2018-02-03T14:56:13.452Z,7.10
2018-02-03T14:58:46.989Z,6.00
2018-02-03T15:03:57.000Z,7.22
2018-02-03T15:09:06.584Z,7.70
2018-02-03T15:11:39.798Z,8.10
2018-02-03T15:14:13.657Z,7.83
2018-02-03T15:16:47.029Z,6.40
2018-02-03T15:19:16.048Z,6.00
2018-02-03T15:21:45.136Z,6.50
2018-02-03T15:24:14.178Z,7.80
2018-02-03T15:26:43.223Z,7.70
2018-02-03T15:31:47.635Z,8.00
2018-02-03T15:34:16.668Z,6.53
2018-02-03T15:36:45.730Z,7.40
2018-02-03T15:39:14.909Z,8.60
2018-02-03T15:41:44.778Z,7.77
2018-02-03T15:44:14.438Z,6.43
2018-02-03T15:49:19.650Z,8.88
2018-02-03T15:51:48.688Z,9.00
2018-02-03T15:56:53.161Z,9.43
2018-02-03T15:59:23.212Z,7.80
2018-02-03T16:01:52.230Z,7.07
2018-02-03T16:04:26.108Z,7.20
2018-02-03T16:06:55.129Z,7.17
2018-02-03T16:09:24.181Z,8.65
2018-02-03T16:11:53.214Z,7.10
2018-02-03T16:14:22.303Z,7.13
2018-02-03T16:16:51.359Z,9.00
2018-02-03T16:19:20.408Z,7.20
2018-02-03T16:21:49.440Z,7.93
2018-02-03T16:24:18.490Z,7.73
2018-02-03T16:26:47.525Z,8.23
2018-02-03T16:29:18.790Z,8.95
2018-02-03T16:31:48.917Z,7.37
2018-02-03T16:34:17.974Z,7.80
2018-02-03T16:36:48.981Z,6.87
2018-02-03T16:41:54.464Z,7.87
2018-02-03T16:44:27.856Z,4.63
2018-02-03T16:46:58.998Z,4.28
2018-02-03T16:49:28.046Z,3.73
2018-02-03T16:52:04.454Z,4.10
2018-02-03T16:54:33.480Z,3.90
2018-02-03T16:59:37.893Z,3.90
2018-02-03T17:02:09.123Z,3.70
2018-02-03T17:04:39.123Z,4.80
2018-02-03T17:07:13.504Z,5.00
2018-02-03T17:09:42.567Z,5.50
2018-02-03T17:12:15.171Z,3.70
2018-02-03T17:14:44.219Z,4.37
2018-02-03T17:17:13.646Z,4.90
2018-02-03T17:19:42.688Z,4.93
2018-02-03T17:22:19.453Z,4.90
2018-02-03T17:27:24.591Z,4.40
2018-02-03T17:29:54.560Z,3.93
2018-02-03T17:32:27.368Z,4.50
2018-02-03T17:35:00.255Z,4.70
2018-02-03T17:37:34.854Z,4.27
2018-02-03T17:40:03.925Z,4.60
2018-02-03T17:42:32.951Z,4.82
2018-02-03T17:45:07.488Z,3.80
2018-02-03T17:47:36.545Z,4.80
2018-02-03T17:50:10.969Z,5.20
2018-02-03T17:52:39.985Z,4.27
2018-02-03T17:55:09.235Z,4.30
2018-02-03T17:57:44.682Z,5.20
2018-02-03T18:00:14.684Z,4.03
2018-02-03T18:02:43.793Z,4.78
2018-02-03T18:05:13.836Z,4.60
2018-02-03T18:07:43.786Z,4.20
2018-02-03T18:10:13.453Z,4.70
2018-02-03T18:17:58.929Z,5.53
2018-02-03T18:20:38.914Z,4.70
2018-02-03T18:23:07.981Z,5.22
2018-02-03T18:25:41.466Z,5.40
2018-02-03T18:30:46.761Z,5.12
2018-02-03T18:33:19.457Z,5.23
2018-02-03T18:35:49.469Z,6.53
2018-02-03T18:38:19.458Z,5.93
2018-02-03T18:40:48.501Z,7.43
2018-02-03T18:43:18.455Z,7.37
2018-02-03T18:45:50.602Z,7.40
2018-02-03T18:48:19.674Z,8.15
2018-02-03T18:50:48.732Z,9.57
2018-02-03T18:53:25.242Z,5.30
2018-02-03T18:55:54.272Z,6.37
2018-02-03T18:58:25.233Z,6.30
2018-02-03T19:00:54.274Z,5.10
2018-02-03T19:03:23.310Z,6.30
2018-02-03T19:05:52.346Z,5.97
2018-02-03T19:08:21.415Z,6.53
2018-02-03T19:13:25.663Z,8.00
2018-02-03T19:15:58.623Z,6.10
2018-02-03T19:18:27.683Z,6.97
2018-02-03T19:21:00.178Z,7.60
2018-02-03T19:23:29.221Z,7.87
2018-02-03T19:25:59.155Z,8.57
2018-02-03T19:28:28.205Z,8.37
2018-02-03T19:30:57.250Z,8.43
2018-02-03T19:33:26.302Z,8.10
2018-02-03T19:36:01.018Z,9.60
2018-02-03T19:41:06.594Z,10.20
2018-02-03T19:43:39.373Z,10.97
2018-02-03T19:46:08.452Z,9.37
2018-02-03T19:48:45.322Z,10.43
2018-02-03T19:51:14.388Z,10.93
2018-02-03T19:56:19.646Z,11.80
2018-02-03T19:58:50.630Z,10.88
2018-02-03T20:01:19.682Z,9.50
2018-02-03T20:03:52.197Z,11.32
2018-02-03T20:06:21.255Z,10.27
2018-02-03T20:09:04.489Z,11.73
2018-02-03T20:11:42.535Z,9.90
2018-02-03T20:14:11.594Z,12.82
2018-02-03T20:16:45.464Z,13.25
2018-02-03T20:19:28.213Z,12.83
2018-02-03T20:22:04.485Z,13.90
2018-02-03T20:24:34.516Z,11.10
2018-02-03T20:29:40.390Z,13.90
2018-02-03T20:32:15.148Z,15.52
2018-02-03T20:34:44.207Z,12.40
2018-02-03T20:37:16.979Z,12.85
2018-02-03T20:39:46.026Z,9.97
2018-02-03T20:42:32.534Z,12.40
2018-02-03T20:47:37.757Z,12.20
2018-02-03T20:50:34.860Z,11.90
2018-02-03T20:55:46.200Z,15.02
2018-02-03T20:58:15.272Z,11.63
2018-02-03T21:00:44.330Z,17.65
2018-02-03T21:03:14.335Z,38.90
2018-02-03T21:05:43.377Z,13.73
2018-02-03T21:11:11.276Z,14.15
2018-02-03T21:13:40.344Z,10.70
2018-02-03T21:16:13.390Z,12.93
2018-02-03T21:18:42.831Z,10.60
2018-02-03T21:21:12.560Z,11.52
2018-02-03T21:23:41.611Z,13.00
2018-02-03T21:28:49.888Z,14.38
2018-02-03T21:34:24.090Z,13.43
2018-02-03T21:36:54.858Z,12.97
2018-02-03T21:39:27.650Z,11.53
2018-02-03T21:42:14.304Z,13.65
2018-02-03T21:44:44.256Z,11.83
2018-02-03T21:47:15.206Z,14.25
2018-02-03T21:49:44.253Z,13.75
2018-02-03T21:52:22.192Z,12.13
2018-02-03T21:54:51.243Z,13.45
2018-02-03T21:57:25.157Z,13.70
2018-02-03T22:00:22.198Z,10.97
2018-02-03T22:02:57.103Z,13.25
2018-02-03T22:08:05.547Z,13.68
2018-02-03T22:10:34.601Z,10.40
2018-02-03T22:13:05.579Z,12.98
2018-02-03T22:15:34.634Z,13.13
2018-02-03T22:18:05.276Z,14.13
2018-02-03T22:20:34.298Z,13.57
2018-02-03T22:23:06.014Z,12.50
2018-02-03T22:25:35.093Z,10.60
2018-02-03T22:28:07.842Z,13.20
2018-02-03T22:30:36.900Z,10.70
2018-02-03T22:33:19.562Z,12.57
2018-02-03T22:35:48.627Z,10.83
2018-02-03T22:38:29.662Z,12.43
2018-02-03T22:40:59.574Z,12.50
2018-02-03T22:43:28.712Z,10.77
2018-02-03T22:46:01.119Z,12.73
2018-02-03T22:48:31.074Z,12.80
2018-02-03T22:51:00.174Z,9.43
2018-02-03T22:53:30.125Z,12.85
2018-02-03T22:56:01.045Z,13.30
2018-02-03T22:58:33.563Z,10.70
2018-02-03T23:01:10.014Z,13.85
2018-02-03T23:03:39.060Z,11.80
2018-02-03T23:08:48.938Z,16.45
2018-02-03T23:11:17.949Z,12.53
2018-02-03T23:13:47.006Z,14.98
2018-02-03T23:16:16.068Z,16.67
2018-02-03T23:18:45.117Z,16.70
2018-02-03T23:21:14.162Z,17.12
2018-02-03T23:23:43.266Z,13.80
2018-02-03T23:26:13.219Z,17.30
2018-02-03T23:28:42.265Z,13.60
2018-02-03T23:31:11.332Z,15.90
2018-02-03T23:33:40.372Z,17.55
2018-02-03T23:36:10.332Z,14.53
2018-02-03T23:38:39.395Z,16.73
2018-02-03T23:41:08.453Z,14.67
2018-02-03T23:43:37.490Z,16.55
2018-02-03T23:46:09.594Z,13.80
2018-02-03T23:48:38.665Z,15.57
2018-02-03T23:53:47.885Z,16.33
2018-02-03T23:56:25.848Z,13.97
